Etusivu
METAR-TAF:

METAR-TAF

Lentoasemat :

Tunis, Tunisia

Leveyspiiri: 36-50N, Pituuspiiri: 010-14E, korkeus merenpinnasta: 3 m

Tämänhetkinen sää

Tämä raportti tehtiin 32 minuuttia sitten, kello 19.00 UTC
Tuuli 6 kn pohjoisesta/koillisesta
Lämpötila 31°C
Kosteus 40%
Ilmanpaine 1011 hPa
Näkyvyys 10 km tai enemmän
Muutamia pilviä 4600 ft:n korkeudessa

METAR: DTTA 211900Z 02006KT 9999 FEW046 31/16 Q1011 NOSIG

Aika: 20:32 (19:32 UTC)

Sääennuste

Tämä raportti tehtiin 2 tuntia ja 32 minuuttia sitten, kello 17.00 UTC
Ennuste voimassa 21. päivästä klo 18 UTC - 22. päivään klo 18 UTC
Tuuli 10 kn pohjoisesta/koillisesta
Näkyvyys 10 km tai enemmän
Muutamia pilviä 4600 ft:n korkeudessa
Todennäköisyys 30% :
Ajoittain
21. päivästä klo 19 UTC - 21. päivään klo 22 UTC
Näkyvyys: 4000 m
Muutamia pilviä 2600 ft:n korkeudessa, Cumulonimbus.
ukkosmyrsky, sadetta

TAF: DTTA 211700Z 2118/2218 02010KT 9999 FEW046 PROB30 TEMPO 2119/2122 4000 TSRA FEW026CB

Säähavainnot ja -ennusteet yli 4000 lentoasemalta (METAR- ja TAF-raportit).

Käytössä olevat sääasemat on merkitty karttaan keltaisilla ja punaisilla pisteillä.

Aseta hiiri pisteen päälle nähdäksesi sääaseman nimen.

Klikkaa sitten nähdäksesi säähavainnot ja -ennusteet.

Kartan vaihtaminen: klikkaa mustalla rastilla varustettuja vihreitä pisteitä, niin voit zoomata sisään; viivalla varustettua vihreää pistettä, niin voit zoomata ulos tai vihreitä nuolia, niin pääset viereisille kartoille.


METAR-TAF: